首页
METAR-TAF:

METAR-TAF

机场 :

臺南機場

臺南市, 台湾

纬度: 22-57-01N, 经度: 120-12-20E, 海拔: 19米

当前天气观测

该预报发布于21分钟前的03:00 UTC
风速6节,风向西北
温度 25°C
湿度 100%
气压 1003 hPa
能見度: 3200
散云层高于600英尺
少量云层高于1000英尺, 积雨云.
多云层高于1600英尺
多云层高于3000英尺
雷暴, 小雨

METAR: RCNN 280300Z 32006KT 3200 -TSRA SCT006 FEW010CB BKN016 BKN030 25/25 Q1003 BECMG TL 0400 3200 TSRA RMK A2964 RA AMT 2.6MM TS S MOV E

时间: 11:21 (03:21 UTC)

预报

该预报发布于1小时和31分钟前的01:50 UTC
预报有效从28日的 02点(UTC)到 28日的 24点(UTC)
风速6节,风向
能見度: 0400
散云层高于800英尺
少量云层高于1000英尺, 积雨云.
多云层高于1600英尺
多云层高于4000英尺
雷暴, 雨
成为
从 28日的 04点(UTC)到 28日的 06点(UTC)
能見度: 3200
散云层高于800英尺
少量云层高于1000英尺, 积雨云.
多云层高于2100英尺
多云层高于5000英尺
雨, 轻雾
成为
从 28日的 07点(UTC)到 28日的 10点(UTC)
风速4节,风向东南
能见度10公里或以上
少量云层高于1200英尺
散云层高于2500英尺
多云层高于6000英尺
短暂存在
从 28日的 18点(UTC)到 28日的 23点(UTC)
能見度: 8000
少量云层高于1000英尺
散云层高于2000英尺
多云层高于5000英尺
小雨,

TAF: RCNN 280150Z 2802/2824 18006KT 0400 TSRA SCT008 FEW010CB BKN016 BKN040 TX31/2805Z TN24/2821Z BECMG 2804/2806 3200 RA BR SCT008 FEW010CB BKN021 BKN050 BECMG 2807/2810 14004KT 9999 FEW012 SCT025 BKN060 TEMPO 2818/2823 8000 -RA FEW010 SCT020 BKN050

超过4000个机场的气象观测和天气预报(METAR&TAF报告)。

可查询的气象台以黄色和红色小点在地图上表示。

将鼠标移到小点上方,可查看气象台名称。

然后点击查看天气观测和预报。

如需切换地图:点击带黑十字的绿色按钮放大地图;点击带横线的绿色按钮缩小地图;或者点击绿色箭头查看邻近地区的地图。


METAR-TAF: